Time;durP1;ratioP1;P1;durP2;ratioP2;P2;SDS_P1;SDS_P2;PMS_P1;PMS_P2;Temp;Humidity;BMP_temperature;BMP_pressure;BME280_temperature;BME280_humidity;BME280_pressure;Samples;Min_cycle;Max_cycle;Signal;HPM_P1;HPM_P2
2023/11/26 00:00:30;;;;;;;7.07;3.88;;;1.70;99.90;;;;;;5054071;28;20037;-77
2023/11/26 00:03:16;;;;;;;8.65;3.88;;;1.60;99.90;;;;;;5006395;28;20038;-77
2023/11/26 00:06:05;;;;;;;9.60;4.20;;;1.70;99.90;;;;;;5006699;28;20633;-76
2023/11/26 00:08:51;;;;;;;8.63;3.83;;;1.60;99.90;;;;;;5022368;28;20041;-77
2023/11/26 00:11:37;;;;;;;10.73;3.90;;;1.60;99.90;;;;;;5039723;28;20120;-77
2023/11/26 00:14:23;;;;;;;11.90;4.65;;;1.60;99.90;;;;;;5025307;28;20048;-77
2023/11/26 00:17:09;;;;;;;7.32;4.30;;;1.50;99.90;;;;;;5024942;28;20038;-76
2023/11/26 00:19:57;;;;;;;11.45;4.30;;;1.50;99.90;;;;;;5017830;28;20038;-77
2023/11/26 00:22:43;;;;;;;13.27;4.43;;;1.50;99.90;;;;;;5019134;28;20045;-77
2023/11/26 00:25:29;;;;;;;12.30;4.65;;;1.40;99.90;;;;;;5005030;28;20084;-77
2023/11/26 00:28:15;;;;;;;7.53;4.45;;;1.30;99.90;;;;;;5004055;28;20044;-77
2023/11/26 00:31:01;;;;;;;9.07;4.90;;;1.20;99.90;;;;;;5004199;28;20541;-77
2023/11/26 00:33:53;;;;;;;10.45;4.53;;;1.20;99.90;;;;;;5020261;28;20042;-77
2023/11/26 00:36:42;;;;;;;9.02;4.38;;;1.10;99.90;;;;;;5018994;28;20362;-77
2023/11/26 00:39:29;;;;;;;11.32;4.03;;;1.10;99.90;;;;;;5024244;28;20045;-77
2023/11/26 00:42:15;;;;;;;7.43;3.53;;;1.10;99.90;;;;;;5036978;28;20037;-77
2023/11/26 00:45:01;;;;;;;8.20;3.80;;;1.20;99.90;;;;;;5038090;28;20037;-77
2023/11/26 00:47:47;;;;;;;10.68;4.70;;;1.10;99.90;;;;;;5019667;28;20040;-77
2023/11/26 00:50:33;;;;;;;7.97;4.30;;;1.20;99.90;;;;;;5050787;28;20040;-77
2023/11/26 00:53:20;;;;;;;13.35;4.60;;;1.20;99.90;;;;;;5028795;28;20041;-77
2023/11/26 00:56:06;;;;;;;9.93;3.90;;;1.20;99.90;;;;;;5029917;28;20049;-77
2023/11/26 00:58:54;;;;;;;10.23;4.13;;;1.30;99.90;;;;;;5045693;28;20061;-77
2023/11/26 01:01:40;;;;;;;7.63;4.32;;;1.30;99.90;;;;;;5038011;28;20103;-75
2023/11/26 01:04:26;;;;;;;11.43;3.95;;;1.30;99.90;;;;;;5023042;28;20124;-76
2023/11/26 01:07:12;;;;;;;14.70;4.45;;;1.40;99.90;;;;;;5015715;28;20425;-77
2023/11/26 01:09:58;;;;;;;10.27;4.15;;;1.40;99.90;;;;;;5021649;28;20048;-77
2023/11/26 01:12:44;;;;;;;9.85;3.83;;;1.40;99.90;;;;;;5020672;28;20133;-77
2023/11/26 01:15:37;;;;;;;8.45;3.97;;;1.40;99.90;;;;;;5005527;28;20042;-77
2023/11/26 01:18:23;;;;;;;11.07;3.88;;;1.40;99.90;;;;;;5016604;28;20091;-78
2023/11/26 01:21:09;;;;;;;11.75;4.18;;;1.40;99.90;;;;;;5036302;28;20461;-77
2023/11/26 01:23:55;;;;;;;8.75;3.72;;;1.40;99.90;;;;;;5006817;28;20058;-79
2023/11/26 01:26:41;;;;;;;9.63;3.90;;;1.40;99.90;;;;;;5002858;28;20033;-78
2023/11/26 01:29:27;;;;;;;8.00;4.18;;;1.30;99.90;;;;;;5031992;28;20044;-78
2023/11/26 01:32:14;;;;;;;8.63;4.00;;;1.30;99.90;;;;;;5005062;28;20041;-78
2023/11/26 01:35:02;;;;;;;7.63;3.60;;;1.30;99.90;;;;;;5023325;28;20048;-77
2023/11/26 01:37:48;;;;;;;8.27;3.75;;;1.30;99.90;;;;;;5020101;28;20459;-77
2023/11/26 01:40:38;;;;;;;10.70;4.45;;;1.30;99.90;;;;;;5003061;28;20318;-78
2023/11/26 01:43:25;;;;;;;12.43;3.88;;;1.10;99.90;;;;;;5029627;28;20311;-77
2023/11/26 01:46:12;;;;;;;6.53;3.20;;;1.20;99.90;;;;;;4990810;28;20387;-77
2023/11/26 01:49:01;;;;;;;8.30;4.10;;;1.20;99.90;;;;;;5003331;28;20351;-77
2023/11/26 01:51:47;;;;;;;11.13;4.55;;;1.20;99.90;;;;;;5025827;28;20068;-77
2023/11/26 01:54:35;;;;;;;12.27;4.43;;;1.20;99.90;;;;;;5034876;28;20057;-76
2023/11/26 01:57:21;;;;;;;7.22;3.92;;;1.20;99.90;;;;;;5012079;28;20131;-76
2023/11/26 02:00:08;;;;;;;9.63;4.30;;;1.10;99.90;;;;;;5023749;28;20037;-77
2023/11/26 02:02:56;;;;;;;9.60;4.47;;;1.10;99.90;;;;;;5003354;28;20037;-77
2023/11/26 02:05:42;;;;;;;9.18;4.30;;;1.10;99.90;;;;;;5023610;28;20038;-76
2023/11/26 02:08:28;;;;;;;13.45;4.40;;;1.10;99.90;;;;;;5029805;28;20059;-77
2023/11/26 02:11:14;;;;;;;10.57;4.50;;;1.10;99.90;;;;;;5019305;28;20227;-77
2023/11/26 02:14:01;;;;;;;11.88;4.70;;;1.10;99.90;;;;;;5008007;28;20378;-76
2023/11/26 02:16:47;;;;;;;10.57;4.70;;;1.10;99.90;;;;;;5030581;28;20064;-78
2023/11/26 02:19:40;;;;;;;11.88;4.68;;;1.10;99.90;;;;;;5032960;28;20271;-77
2023/11/26 02:22:27;;;;;;;8.77;4.25;;;1.10;99.90;;;;;;5033233;28;20738;-77
2023/11/26 02:25:13;;;;;;;11.93;4.53;;;1.00;99.90;;;;;;5026230;28;20040;-76
2023/11/26 02:27:59;;;;;;;11.25;4.10;;;1.00;99.90;;;;;;5009907;28;20084;-77
2023/11/26 02:30:45;;;;;;;12.27;4.57;;;1.00;99.90;;;;;;5019720;28;20052;-76
2023/11/26 02:33:32;;;;;;;11.95;4.55;;;1.00;99.90;;;;;;5013126;28;20033;-76
2023/11/26 02:36:18;;;;;;;14.82;4.80;;;1.00;99.90;;;;;;5033335;28;20040;-77
2023/11/26 02:39:05;;;;;;;9.77;4.57;;;1.00;99.90;;;;;;5013919;28;20037;-78
2023/11/26 02:41:51;;;;;;;17.00;5.28;;;1.00;99.90;;;;;;5006456;28;20140;-77
2023/11/26 02:44:37;;;;;;;8.32;4.68;;;1.00;99.90;;;;;;5000736;28;20033;-76
2023/11/26 02:47:24;;;;;;;11.00;5.00;;;0.90;99.90;;;;;;5025678;28;20107;-77
2023/11/26 02:50:10;;;;;;;10.65;5.03;;;0.90;99.90;;;;;;5005641;28;20607;-76
2023/11/26 02:52:58;;;;;;;11.93;4.85;;;1.00;99.90;;;;;;5027047;28;20041;-77
2023/11/26 02:55:44;;;;;;;9.75;4.32;;;1.00;99.90;;;;;;4993928;28;20045;-77
2023/11/26 02:58:31;;;;;;;12.05;5.00;;;1.00;99.90;;;;;;5032102;28;20037;-77
2023/11/26 03:01:18;;;;;;;9.13;3.90;;;1.00;99.90;;;;;;5042145;28;20052;-77
2023/11/26 03:04:06;;;;;;;11.23;4.53;;;1.00;99.90;;;;;;5002300;28;20049;-77
2023/11/26 03:06:52;;;;;;;11.52;4.72;;;1.00;99.90;;;;;;4994420;28;20088;-77
2023/11/26 03:12:56;;;;;;;10.48;4.40;;;1.00;99.90;;;;;;5021322;28;20045;-77
2023/11/26 03:15:49;;;;;;;13.15;5.00;;;1.00;99.90;;;;;;5028072;28;20061;-76
2023/11/26 03:18:35;;;;;;;12.38;6.13;;;0.90;99.90;;;;;;4996772;28;20038;-77
2023/11/26 03:21:26;;;;;;;10.50;5.22;;;0.80;99.90;;;;;;4996252;28;20116;-77
2023/11/26 03:24:14;;;;;;;8.93;4.85;;;0.70;99.90;;;;;;5005440;28;20034;-77
2023/11/26 03:27:02;;;;;;;11.07;5.25;;;0.70;99.90;;;;;;5004886;28;20062;-77
2023/11/26 03:29:48;;;;;;;9.90;4.90;;;0.70;99.90;;;;;;4990815;28;20030;-76
2023/11/26 03:32:34;;;;;;;14.77;5.45;;;0.70;99.90;;;;;;5006063;28;20042;-77
2023/11/26 03:35:20;;;;;;;13.05;5.35;;;0.70;99.90;;;;;;4992835;28;20053;-77
2023/11/26 03:38:08;;;;;;;12.27;5.18;;;0.70;99.90;;;;;;5006196;28;20041;-77
2023/11/26 03:40:55;;;;;;;9.52;4.80;;;0.70;99.90;;;;;;5015122;28;20037;-78
2023/11/26 03:43:41;;;;;;;11.05;5.53;;;0.60;99.90;;;;;;5027447;28;20069;-77
2023/11/26 03:46:29;;;;;;;9.88;4.70;;;0.60;99.90;;;;;;5022848;28;20044;-77
2023/11/26 03:49:18;;;;;;;10.30;5.45;;;0.60;99.90;;;;;;5045382;28;20493;-76
2023/11/26 03:52:05;;;;;;;11.52;5.00;;;0.60;99.90;;;;;;5004917;28;20156;-76
2023/11/26 03:54:51;;;;;;;9.50;5.07;;;0.60;99.90;;;;;;5028222;28;20060;-75
2023/11/26 03:57:37;;;;;;;9.27;4.85;;;0.60;99.90;;;;;;5012951;28;20057;-76
2023/11/26 04:00:23;;;;;;;12.50;4.53;;;0.60;99.90;;;;;;5035454;28;20115;-76
2023/11/26 04:03:10;;;;;;;10.63;4.93;;;0.50;99.90;;;;;;5019214;28;20045;-77
2023/11/26 04:05:56;;;;;;;9.88;4.93;;;0.50;99.90;;;;;;5013843;28;20080;-77
2023/11/26 04:08:45;;;;;;;10.00;4.80;;;0.50;99.90;;;;;;5037462;28;20044;-77
2023/11/26 04:11:31;;;;;;;12.57;5.28;;;0.40;99.90;;;;;;5025037;28;20544;-77
2023/11/26 04:14:18;;;;;;;10.93;5.00;;;0.40;99.90;;;;;;5024435;28;20091;-77
2023/11/26 04:17:04;;;;;;;14.45;5.10;;;0.40;99.90;;;;;;5024423;28;20152;-77
2023/11/26 04:19:51;;;;;;;9.43;4.93;;;0.40;99.90;;;;;;5031085;28;20386;-77
2023/11/26 04:22:40;;;;;;;9.80;5.13;;;0.40;99.90;;;;;;5003697;28;20497;-77
2023/11/26 04:25:26;;;;;;;13.13;5.25;;;0.40;99.90;;;;;;5022906;28;20033;-77
2023/11/26 04:28:15;;;;;;;9.30;4.28;;;0.50;99.90;;;;;;4998102;28;20112;-77
2023/11/26 04:31:02;;;;;;;9.30;5.30;;;0.50;99.90;;;;;;5038750;28;21079;-76
2023/11/26 04:33:48;;;;;;;11.00;4.70;;;0.40;99.90;;;;;;5023628;28;20060;-76
2023/11/26 04:36:34;;;;;;;7.82;4.50;;;0.40;99.90;;;;;;5036231;28;20055;-77
2023/11/26 04:39:23;;;;;;;7.97;4.82;;;0.40;99.90;;;;;;5017724;28;20122;-77
2023/11/26 04:42:09;;;;;;;11.23;4.70;;;0.40;99.90;;;;;;5017493;28;20049;-77
2023/11/26 04:44:55;;;;;;;9.85;5.03;;;0.40;99.90;;;;;;5004460;28;20041;-77
2023/11/26 04:47:41;;;;;;;10.25;5.18;;;0.40;99.90;;;;;;5017841;28;20490;-77
2023/11/26 04:50:28;;;;;;;9.32;4.85;;;0.50;99.90;;;;;;5003189;28;20038;-77
2023/11/26 04:53:15;;;;;;;11.57;5.32;;;0.40;99.90;;;;;;5017750;28;20038;-77
2023/11/26 04:56:03;;;;;;;8.77;4.60;;;0.50;99.90;;;;;;5016796;28;20040;-76
2023/11/26 04:58:50;;;;;;;11.82;4.97;;;0.50;99.90;;;;;;4992166;28;20034;-75
2023/11/26 05:01:43;;;;;;;12.55;5.40;;;0.50;99.90;;;;;;5018643;28;20502;-75
2023/11/26 05:04:29;;;;;;;8.23;4.75;;;0.50;99.90;;;;;;5006014;28;20063;-75
2023/11/26 05:07:15;;;;;;;7.35;4.40;;;0.50;99.90;;;;;;5008490;28;20046;-75
2023/11/26 05:10:01;;;;;;;10.30;4.70;;;0.50;99.90;;;;;;5024807;28;20043;-76
2023/11/26 05:12:47;;;;;;;7.35;4.65;;;0.50;99.90;;;;;;5027987;28;20408;-75
2023/11/26 05:15:37;;;;;;;8.02;4.15;;;0.50;99.90;;;;;;5040996;28;20044;-75
2023/11/26 05:18:23;;;;;;;9.15;5.00;;;0.50;99.90;;;;;;5026072;28;20034;-76
2023/11/26 05:21:09;;;;;;;9.52;4.75;;;0.50;99.90;;;;;;5017561;28;20052;-76
2023/11/26 05:23:55;;;;;;;10.18;4.25;;;0.50;99.90;;;;;;5020565;28;20107;-75
2023/11/26 05:26:41;;;;;;;9.38;5.25;;;0.50;99.90;;;;;;5017351;28;20364;-76
2023/11/26 05:29:27;;;;;;;9.40;4.60;;;0.60;99.90;;;;;;5025862;28;20069;-76
2023/11/26 05:32:13;;;;;;;13.18;5.07;;;0.60;99.90;;;;;;5017368;28;20064;-75
2023/11/26 05:34:59;;;;;;;11.48;4.70;;;0.60;99.90;;;;;;5023560;28;20471;-75
2023/11/26 05:37:46;;;;;;;10.57;5.88;;;0.60;99.90;;;;;;5026594;28;20033;-75
2023/11/26 05:40:32;;;;;;;9.75;4.80;;;0.60;99.90;;;;;;5050955;28;20029;-76
2023/11/26 05:43:19;;;;;;;8.05;4.93;;;0.50;99.90;;;;;;5049193;28;20044;-76
2023/11/26 05:46:08;;;;;;;15.02;5.00;;;0.60;99.90;;;;;;5019661;28;20128;-75
2023/11/26 05:48:54;;;;;;;10.18;4.80;;;0.60;99.90;;;;;;5022739;28;20128;-75
2023/11/26 05:51:40;;;;;;;10.50;4.55;;;0.60;99.90;;;;;;5025081;28;20067;-76
2023/11/26 05:54:27;;;;;;;11.95;4.88;;;0.60;99.90;;;;;;5011751;28;20091;-75
2023/11/26 05:57:13;;;;;;;12.90;5.22;;;0.70;99.90;;;;;;5044520;28;20129;-75
2023/11/26 05:59:59;;;;;;;11.75;4.95;;;0.70;99.90;;;;;;5029782;28;20072;-75
2023/11/26 06:02:45;;;;;;;10.00;5.43;;;0.70;99.90;;;;;;5030163;28;20041;-75
2023/11/26 06:05:34;;;;;;;8.43;5.38;;;0.70;99.90;;;;;;5017438;28;20065;-75
2023/11/26 06:08:21;;;;;;;7.68;4.75;;;0.70;99.90;;;;;;5024382;28;20692;-75
2023/11/26 06:11:08;;;;;;;11.52;5.65;;;0.70;99.90;;;;;;5013156;28;20037;-75
2023/11/26 06:13:54;;;;;;;10.45;5.30;;;0.70;99.90;;;;;;5026591;28;20042;-75
2023/11/26 06:16:43;;;;;;;9.70;5.45;;;0.70;99.90;;;;;;5023800;28;20120;-76
2023/11/26 06:19:29;;;;;;;10.65;5.20;;;0.80;99.90;;;;;;5017330;28;20033;-75
2023/11/26 06:22:16;;;;;;;10.70;5.20;;;0.80;99.90;;;;;;5020192;28;20485;-75
2023/11/26 06:25:02;;;;;;;12.88;5.32;;;0.80;99.90;;;;;;5027647;28;20047;-75
2023/11/26 06:27:48;;;;;;;9.57;5.38;;;0.80;99.90;;;;;;5024818;28;20045;-75
2023/11/26 06:30:34;;;;;;;9.20;5.13;;;0.90;99.90;;;;;;5035494;28;20045;-75
2023/11/26 06:33:20;;;;;;;14.98;5.50;;;0.90;99.90;;;;;;5017472;28;20124;-75
2023/11/26 06:36:15;;;;;;;10.55;5.43;;;0.90;99.90;;;;;;5039064;28;20484;-75
2023/11/26 06:39:01;;;;;;;8.65;5.35;;;0.90;99.90;;;;;;5030643;28;20045;-75
2023/11/26 06:41:48;;;;;;;11.20;5.43;;;0.90;99.90;;;;;;5022920;28;20036;-75
2023/11/26 06:44:34;;;;;;;10.25;5.68;;;1.00;99.90;;;;;;5046520;28;20030;-76
2023/11/26 06:47:21;;;;;;;10.55;5.65;;;1.00;99.90;;;;;;5010748;28;20045;-76
2023/11/26 06:50:07;;;;;;;10.65;5.75;;;1.00;99.90;;;;;;5007443;28;20038;-76
2023/11/26 06:52:54;;;;;;;12.73;5.93;;;1.00;99.90;;;;;;5025823;28;20042;-76
2023/11/26 06:55:40;;;;;;;13.70;6.43;;;1.00;99.90;;;;;;5021325;28;20049;-76
2023/11/26 06:58:26;;;;;;;10.00;6.35;;;1.00;99.90;;;;;;5026297;28;20047;-76
2023/11/26 07:01:13;;;;;;;11.98;6.22;;;1.00;99.90;;;;;;5031108;28;20107;-76
2023/11/26 07:03:59;;;;;;;12.40;6.95;;;1.00;99.90;;;;;;5017513;28;20041;-76
2023/11/26 07:06:45;;;;;;;17.00;7.32;;;1.00;99.90;;;;;;5001493;28;20104;-76
2023/11/26 07:09:32;;;;;;;15.90;7.13;;;1.00;99.90;;;;;;4987578;28;20038;-75
2023/11/26 07:12:18;;;;;;;11.87;6.67;;;1.10;99.90;;;;;;5016315;28;20073;-75
2023/11/26 07:15:04;;;;;;;13.00;6.95;;;1.10;99.90;;;;;;5044040;28;20072;-75
2023/11/26 07:17:51;;;;;;;16.33;8.10;;;1.10;99.90;;;;;;5041464;28;20049;-76
2023/11/26 07:20:37;;;;;;;18.42;9.02;;;1.10;99.90;;;;;;5035049;28;20120;-76
2023/11/26 07:23:23;;;;;;;13.02;7.05;;;1.10;99.90;;;;;;5018174;28;20050;-76
2023/11/26 07:26:11;;;;;;;16.15;7.55;;;1.10;99.90;;;;;;5039732;28;20040;-76
2023/11/26 07:28:57;;;;;;;14.02;7.95;;;1.10;99.90;;;;;;5053400;28;20033;-76
2023/11/26 07:31:47;;;;;;;12.93;6.95;;;1.10;99.90;;;;;;5054330;28;20390;-76
2023/11/26 07:34:33;;;;;;;14.80;7.47;;;1.20;99.90;;;;;;5027962;28;20036;-76
2023/11/26 07:37:21;;;;;;;14.23;7.50;;;1.20;99.90;;;;;;5038917;28;20046;-75
2023/11/26 07:40:12;;;;;;;18.67;8.63;;;1.20;99.90;;;;;;5031012;28;20362;-76
2023/11/26 07:43:04;;;;;;;16.02;8.73;;;1.20;99.90;;;;;;5001970;28;20030;-76
2023/11/26 07:45:50;;;;;;;14.95;9.15;;;1.20;99.90;;;;;;5027019;28;20127;-76
2023/11/26 07:48:36;;;;;;;12.05;7.15;;;1.20;99.90;;;;;;5015684;28;20132;-76
2023/11/26 07:51:22;;;;;;;15.82;7.65;;;1.30;99.90;;;;;;5021037;28;20045;-76
2023/11/26 07:54:09;;;;;;;16.90;7.88;;;1.30;99.90;;;;;;4990508;28;20076;-75
2023/11/26 07:56:55;;;;;;;14.95;7.38;;;1.30;99.90;;;;;;5031839;28;20077;-78
2023/11/26 07:59:43;;;;;;;13.35;7.10;;;1.30;99.90;;;;;;5004870;28;20045;-76
2023/11/26 08:02:29;;;;;;;17.63;7.15;;;1.40;99.90;;;;;;5043814;28;20037;-75
2023/11/26 08:05:18;;;;;;;15.00;7.50;;;1.40;99.90;;;;;;5023010;28;20087;-75
2023/11/26 08:08:05;;;;;;;25.05;11.35;;;1.40;99.90;;;;;;5035034;28;20136;-76
2023/11/26 08:10:51;;;;;;;20.10;10.50;;;1.40;99.90;;;;;;5027047;28;20042;-76
2023/11/26 08:13:41;;;;;;;14.25;8.32;;;1.40;99.90;;;;;;5011273;28;20471;-76
2023/11/26 08:16:27;;;;;;;14.98;7.88;;;1.50;99.90;;;;;;5018903;28;20045;-75
2023/11/26 08:19:17;;;;;;;14.95;8.15;;;1.50;99.90;;;;;;5031821;28;20486;-75
2023/11/26 08:22:06;;;;;;;14.13;7.75;;;1.50;99.90;;;;;;5036469;28;20044;-75
2023/11/26 08:24:52;;;;;;;15.05;7.95;;;1.50;99.90;;;;;;4992038;28;20530;-75
2023/11/26 08:27:45;;;;;;;15.88;8.93;;;1.60;99.90;;;;;;5004016;28;20045;-75
2023/11/26 08:30:45;;;;;;;13.48;7.78;;;1.50;99.90;;;;;;5032900;28;20490;-75
2023/11/26 08:33:36;;;;;;;13.00;7.30;;;1.60;99.90;;;;;;5036482;28;20123;-75
2023/11/26 08:36:23;;;;;;;12.45;6.80;;;1.60;99.90;;;;;;5022448;28;20041;-75
2023/11/26 08:39:18;;;;;;;16.35;7.05;;;1.70;99.90;;;;;;5031495;28;20116;-76
2023/11/26 08:42:05;;;;;;;15.05;7.10;;;1.70;99.90;;;;;;5036719;28;20033;-76
2023/11/26 08:44:53;;;;;;;11.00;6.60;;;1.80;99.90;;;;;;5031320;28;20037;-76
2023/11/26 08:47:43;;;;;;;11.27;6.28;;;1.90;99.90;;;;;;5020829;28;20478;-75
2023/11/26 08:50:30;;;;;;;14.25;7.15;;;1.90;99.90;;;;;;5024426;28;20069;-76
2023/11/26 08:53:16;;;;;;;15.45;6.03;;;1.90;99.90;;;;;;5044746;28;20052;-75
2023/11/26 08:56:04;;;;;;;12.48;6.70;;;2.00;99.90;;;;;;5037879;28;20042;-75
2023/11/26 08:58:51;;;;;;;14.95;7.35;;;2.00;99.90;;;;;;5019350;28;20497;-76
2023/11/26 09:01:37;;;;;;;14.80;6.85;;;2.10;99.90;;;;;;5017907;28;20041;-75
2023/11/26 09:04:24;;;;;;;17.98;6.55;;;2.10;99.90;;;;;;5038064;28;20462;-76
2023/11/26 09:07:10;;;;;;;18.15;7.65;;;2.10;99.90;;;;;;5046011;28;20378;-76
2023/11/26 09:09:56;;;;;;;12.73;6.45;;;2.20;99.90;;;;;;5007578;28;20081;-75
2023/11/26 09:12:42;;;;;;;13.07;5.45;;;2.30;99.90;;;;;;5006501;28;20045;-76
2023/11/26 09:15:29;;;;;;;16.10;8.45;;;2.40;99.90;;;;;;5011661;28;20048;-76
2023/11/26 09:18:15;;;;;;;13.65;4.50;;;2.40;99.90;;;;;;5016699;28;20125;-76
2023/11/26 09:21:01;;;;;;;9.95;5.10;;;2.50;99.90;;;;;;4997746;28;20080;-75
2023/11/26 09:23:47;;;;;;;10.82;4.68;;;2.50;99.90;;;;;;5018279;28;20034;-76
2023/11/26 09:26:33;;;;;;;6.93;3.95;;;2.60;99.90;;;;;;5008757;28;20042;-76
2023/11/26 09:29:21;;;;;;;11.82;4.85;;;2.60;99.90;;;;;;4995128;28;20057;-76
2023/11/26 09:32:07;;;;;;;9.18;4.20;;;2.60;99.90;;;;;;5028383;28;20084;-76
2023/11/26 09:34:53;;;;;;;11.82;3.88;;;2.60;99.90;;;;;;5023516;28;20034;-76
2023/11/26 09:37:39;;;;;;;8.85;5.45;;;2.50;99.90;;;;;;5036013;28;20072;-76
2023/11/26 09:40:26;;;;;;;11.50;4.80;;;2.60;99.90;;;;;;5029546;28;20377;-77
2023/11/26 09:43:13;;;;;;;13.52;4.63;;;2.60;99.90;;;;;;4998022;28;20397;-76
2023/11/26 09:46:00;;;;;;;12.98;5.47;;;2.60;99.90;;;;;;5024577;28;20369;-76
2023/11/26 09:48:46;;;;;;;9.27;4.50;;;2.60;99.90;;;;;;5009052;28;20060;-77
2023/11/26 09:51:32;;;;;;;15.55;4.15;;;2.60;99.90;;;;;;5004141;28;20124;-76
2023/11/26 09:54:20;;;;;;;9.38;4.55;;;2.60;99.90;;;;;;5016757;28;20060;-76
2023/11/26 09:57:07;;;;;;;9.57;4.15;;;2.60;99.90;;;;;;5013491;28;20049;-77
2023/11/26 09:59:53;;;;;;;10.25;4.60;;;2.60;99.90;;;;;;4999329;28;20086;-76
2023/11/26 10:02:41;;;;;;;10.30;4.43;;;2.70;99.90;;;;;;5024989;28;20044;-76
2023/11/26 10:05:27;;;;;;;10.98;4.60;;;2.70;99.90;;;;;;5043981;28;20044;-76
2023/11/26 10:08:35;;;;;;;8.50;5.10;;;2.70;99.90;;;;;;5038761;28;20048;-76
2023/11/26 10:11:27;;;;;;;12.00;4.32;;;2.60;99.90;;;;;;5032607;28;20076;-75
2023/11/26 10:14:21;;;;;;;16.45;5.10;;;2.60;99.90;;;;;;5054769;28;20477;-76
2023/11/26 10:17:10;;;;;;;7.45;4.38;;;2.60;99.90;;;;;;5004742;28;20045;-76
2023/11/26 10:20:17;;;;;;;10.73;4.50;;;2.70;99.90;;;;;;5032862;28;20467;-76
2023/11/26 10:23:03;;;;;;;10.00;4.88;;;2.80;99.90;;;;;;5050390;28;20116;-75
2023/11/26 10:25:50;;;;;;;9.23;4.15;;;2.80;99.90;;;;;;5004048;28;20073;-75
2023/11/26 10:28:36;;;;;;;9.05;4.45;;;2.90;99.90;;;;;;5003816;28;20045;-76
2023/11/26 10:31:22;;;;;;;11.18;5.20;;;2.90;99.90;;;;;;5003272;28;20544;-75
2023/11/26 10:34:13;;;;;;;8.00;4.40;;;2.90;99.90;;;;;;5007103;28;20056;-75
2023/11/26 10:36:59;;;;;;;6.72;4.13;;;2.90;99.90;;;;;;5021469;28;20117;-75
2023/11/26 10:39:45;;;;;;;11.88;4.90;;;2.90;99.90;;;;;;5028805;28;20142;-75
2023/11/26 10:42:31;;;;;;;11.23;4.72;;;3.00;99.90;;;;;;5004510;28;20038;-76
2023/11/26 10:45:19;;;;;;;8.65;4.40;;;3.00;99.90;;;;;;5015507;28;20034;-76
2023/11/26 10:48:09;;;;;;;9.70;4.38;;;3.10;99.90;;;;;;5003121;28;20061;-76
2023/11/26 10:51:08;;;;;;;10.35;5.95;;;3.10;99.90;;;;;;5016104;28;20088;-76
2023/11/26 10:54:01;;;;;;;10.45;5.78;;;3.10;99.90;;;;;;5001973;28;20414;-76
2023/11/26 10:56:49;;;;;;;10.23;5.18;;;3.10;99.90;;;;;;5002458;28;20042;-76
2023/11/26 10:59:37;;;;;;;9.80;5.55;;;3.10;99.90;;;;;;5009637;28;20037;-76
2023/11/26 11:02:24;;;;;;;11.90;5.80;;;3.10;99.90;;;;;;5024373;28;20501;-76
2023/11/26 11:05:12;;;;;;;15.30;5.67;;;3.10;99.90;;;;;;5011467;28;20033;-76
2023/11/26 11:08:00;;;;;;;13.45;5.68;;;3.20;99.90;;;;;;5021515;28;20057;-77
2023/11/26 11:11:01;;;;;;;13.65;6.20;;;3.20;99.90;;;;;;5007605;28;20352;-76
2023/11/26 11:13:50;;;;;;;9.63;6.03;;;3.30;99.90;;;;;;5030175;28;20052;-77
2023/11/26 11:16:36;;;;;;;10.38;5.85;;;3.30;99.90;;;;;;5019074;28;20041;-77
2023/11/26 11:19:52;;;;;;;16.08;6.90;;;3.20;99.90;;;;;;5033541;28;20040;-78
2023/11/26 11:22:45;;;;;;;12.13;7.15;;;3.20;99.90;;;;;;5010580;28;20041;-78
2023/11/26 11:25:32;;;;;;;13.10;6.32;;;3.30;99.90;;;;;;5023779;28;20508;-78
2023/11/26 11:28:18;;;;;;;11.65;6.35;;;3.30;99.90;;;;;;5013327;28;20041;-78
2023/11/26 11:31:05;;;;;;;13.50;6.93;;;3.40;99.90;;;;;;5030000;28;20062;-78
2023/11/26 11:34:00;;;;;;;12.75;7.25;;;3.40;99.90;;;;;;5035222;28;20427;-77
2023/11/26 11:36:50;;;;;;;14.77;7.63;;;3.40;99.90;;;;;;5025855;28;20038;-78
2023/11/26 11:39:49;;;;;;;13.50;6.60;;;3.50;99.90;;;;;;5023730;28;20033;-78
2023/11/26 11:42:35;;;;;;;12.93;6.80;;;3.50;99.90;;;;;;5017158;28;20121;-77
2023/11/26 11:45:28;;;;;;;10.63;6.90;;;3.50;99.90;;;;;;5024172;28;20045;-77
2023/11/26 11:48:45;;;;;;;13.63;7.60;;;3.60;99.90;;;;;;4995561;28;20080;-77
2023/11/26 11:51:36;;;;;;;14.07;6.63;;;3.60;99.90;;;;;;5033185;28;20038;-78
2023/11/26 11:54:46;;;;;;;15.93;7.65;;;3.60;99.90;;;;;;5013373;28;20125;-78
2023/11/26 11:57:44;;;;;;;16.73;7.13;;;3.60;99.90;;;;;;5040807;28;20347;-78
2023/11/26 12:00:30;;;;;;;;;;;3.70;99.90;;;;;;5028699;28;20052;-78
2023/11/26 12:03:16;;;;;;;11.38;6.65;;;3.60;99.90;;;;;;5034998;28;19921;-78
2023/11/26 12:06:13;;;;;;;14.10;6.32;;;3.60;99.90;;;;;;5033800;28;20040;-78
2023/11/26 12:09:12;;;;;;;8.70;5.05;;;3.60;99.90;;;;;;5012017;28;20092;-78
2023/11/26 12:11:58;;;;;;;13.02;6.00;;;3.60;99.90;;;;;;5015864;28;20033;-78
2023/11/26 12:14:44;;;;;;;12.98;6.55;;;3.60;99.90;;;;;;5022779;28;20497;-78
2023/11/26 12:17:30;;;;;;;11.80;6.32;;;3.70;99.90;;;;;;5008655;28;20030;-77
2023/11/26 12:20:18;;;;;;;10.82;6.25;;;3.70;99.90;;;;;;5040429;28;20639;-77
2023/11/26 12:23:04;;;;;;;13.15;7.15;;;3.70;99.90;;;;;;5034563;28;20042;-78
2023/11/26 12:25:52;;;;;;;12.90;6.72;;;3.60;99.90;;;;;;5022305;28;20459;-78
2023/11/26 12:28:44;;;;;;;13.38;7.82;;;3.60;99.90;;;;;;5046163;28;20033;-78
2023/11/26 12:31:30;;;;;;;13.23;7.10;;;3.70;99.90;;;;;;5032556;28;20060;-78
2023/11/26 12:34:16;;;;;;;12.73;6.60;;;3.60;99.90;;;;;;5034020;28;20128;-78
2023/11/26 12:37:03;;;;;;;11.30;6.65;;;3.60;99.90;;;;;;5022038;28;20038;-78
2023/11/26 12:39:49;;;;;;;12.13;6.88;;;3.60;99.90;;;;;;5017894;28;20065;-78
2023/11/26 12:42:35;;;;;;;12.93;6.95;;;3.60;99.90;;;;;;5008571;28;20128;-78
2023/11/26 12:45:24;;;;;;;12.43;7.30;;;3.60;99.90;;;;;;5006333;28;20048;-78
2023/11/26 12:48:10;;;;;;;17.25;7.68;;;3.60;99.90;;;;;;5034486;28;20034;-79
2023/11/26 12:50:56;;;;;;;15.55;6.78;;;3.50;99.90;;;;;;5013056;28;20050;-77
2023/11/26 12:53:43;;;;;;;12.43;6.03;;;3.60;99.90;;;;;;5037234;28;20100;-78
2023/11/26 12:56:29;;;;;;;12.63;5.68;;;3.60;99.90;;;;;;5047941;28;20040;-78
2023/11/26 12:59:17;;;;;;;10.82;5.43;;;3.60;99.90;;;;;;5026642;28;20037;-79
2023/11/26 13:02:14;;;;;;;10.63;6.38;;;3.50;99.90;;;;;;5038252;28;20041;-78
2023/11/26 13:05:04;;;;;;;12.80;6.23;;;3.50;99.90;;;;;;5000582;28;20040;-77
2023/11/26 13:07:55;;;;;;;11.80;6.53;;;3.50;99.90;;;;;;5035003;28;20525;-75
2023/11/26 13:10:49;;;;;;;12.98;6.28;;;3.40;99.90;;;;;;5047390;28;20060;-76
2023/11/26 13:13:35;;;;;;;12.40;5.82;;;3.40;99.90;;;;;;5037386;28;20041;-76
2023/11/26 13:16:23;;;;;;;12.60;6.45;;;3.40;99.90;;;;;;5029960;28;20627;-75
2023/11/26 13:19:09;;;;;;;11.50;6.43;;;3.40;99.90;;;;;;5007951;28;20077;-75
2023/11/26 13:21:55;;;;;;;13.77;6.28;;;3.40;99.90;;;;;;5021516;28;20276;-76
2023/11/26 13:24:41;;;;;;;15.13;7.40;;;3.40;99.90;;;;;;5022654;28;20038;-76
2023/11/26 13:27:27;;;;;;;16.00;7.55;;;3.40;99.90;;;;;;5021094;28;20069;-76
2023/11/26 13:30:15;;;;;;;13.93;7.18;;;3.40;99.90;;;;;;5026875;28;20048;-76
2023/11/26 13:33:01;;;;;;;14.50;7.10;;;3.40;99.90;;;;;;5028667;28;20041;-75
2023/11/26 13:35:49;;;;;;;13.30;6.80;;;3.40;99.90;;;;;;5037003;28;20065;-76
2023/11/26 13:38:35;;;;;;;13.43;7.25;;;3.40;99.90;;;;;;5044343;28;20072;-76
2023/11/26 13:41:23;;;;;;;15.70;7.78;;;3.40;99.90;;;;;;5049333;28;20033;-75
2023/11/26 13:44:09;;;;;;;14.10;7.72;;;3.40;99.90;;;;;;5020424;28;20029;-75
2023/11/26 13:46:55;;;;;;;13.63;7.18;;;3.40;99.90;;;;;;5037997;28;20076;-78
2023/11/26 13:49:41;;;;;;;18.63;8.38;;;3.40;99.90;;;;;;4994788;28;20045;-78
2023/11/26 13:52:27;;;;;;;14.18;7.30;;;3.40;99.90;;;;;;5046417;28;20052;-78
2023/11/26 13:55:14;;;;;;;10.45;7.00;;;3.30;99.90;;;;;;5032690;28;20501;-77
2023/11/26 13:58:00;;;;;;;11.40;6.43;;;3.30;99.90;;;;;;5019505;28;20049;-78
2023/11/26 14:00:47;;;;;;;16.42;8.02;;;3.40;99.90;;;;;;5038228;28;20047;-78
2023/11/26 14:03:33;;;;;;;13.70;6.47;;;3.50;99.90;;;;;;5021932;28;20037;-78
2023/11/26 14:06:19;;;;;;;16.58;8.18;;;3.50;99.90;;;;;;5018770;28;20117;-78
2023/11/26 14:09:06;;;;;;;12.13;7.05;;;3.50;99.90;;;;;;5032563;28;20460;-79
2023/11/26 14:11:52;;;;;;;14.23;8.40;;;3.60;99.90;;;;;;5019439;28;20032;-77
2023/11/26 14:14:38;;;;;;;15.23;7.32;;;3.50;99.90;;;;;;5027242;28;20048;-78
2023/11/26 14:17:25;;;;;;;12.88;6.25;;;3.50;99.90;;;;;;5004774;28;20069;-79
2023/11/26 14:20:12;;;;;;;12.00;6.22;;;3.50;99.90;;;;;;4999902;28;20033;-78
2023/11/26 14:22:58;;;;;;;16.33;7.38;;;3.50;99.90;;;;;;5043623;28;20033;-78
2023/11/26 14:25:45;;;;;;;11.75;7.05;;;3.50;99.90;;;;;;5015131;28;20037;-78
2023/11/26 14:28:31;;;;;;;10.73;6.63;;;3.50;99.90;;;;;;5042828;28;20040;-75
2023/11/26 14:31:19;;;;;;;9.43;6.20;;;3.50;99.90;;;;;;5049856;28;20059;-78
2023/11/26 14:34:06;;;;;;;12.88;7.90;;;3.50;99.90;;;;;;5000529;28;20037;-79
2023/11/26 14:36:52;;;;;;;13.63;7.15;;;3.50;99.90;;;;;;4996050;28;20038;-78
2023/11/26 14:39:38;;;;;;;10.77;6.35;;;3.50;99.90;;;;;;5014579;28;20034;-78